sensor_id;sensor_type;location;lat;lon;timestamp;pressure;altitude;pressure_sealevel;temperature;humidity
16094;BME280;8151;47.824;12.092;2023-04-09T00:01:28;96902.50;;;5.85;84.64
16094;BME280;8151;47.824;12.092;2023-04-09T00:03:56;96898.69;;;5.89;84.36
16094;BME280;8151;47.824;12.092;2023-04-09T00:06:25;96899.75;;;5.98;84.30
16094;BME280;8151;47.824;12.092;2023-04-09T00:08:54;96905.72;;;6.00;84.35
16094;BME280;8151;47.824;12.092;2023-04-09T00:11:22;96891.47;;;6.03;84.40
16094;BME280;8151;47.824;12.092;2023-04-09T00:13:52;96895.91;;;6.02;84.63
16094;BME280;8151;47.824;12.092;2023-04-09T00:16:20;96898.94;;;5.98;84.58
16094;BME280;8151;47.824;12.092;2023-04-09T00:18:49;96897.00;;;6.00;84.82
16094;BME280;8151;47.824;12.092;2023-04-09T00:21:18;96893.56;;;5.99;84.74
16094;BME280;8151;47.824;12.092;2023-04-09T00:23:47;96893.88;;;5.95;84.79
16094;BME280;8151;47.824;12.092;2023-04-09T00:26:15;96888.53;;;5.96;84.62
16094;BME280;8151;47.824;12.092;2023-04-09T00:28:43;96897.38;;;5.95;84.63
16094;BME280;8151;47.824;12.092;2023-04-09T00:31:13;96891.25;;;5.95;84.43
16094;BME280;8151;47.824;12.092;2023-04-09T00:33:42;96886.28;;;5.91;84.77
16094;BME280;8151;47.824;12.092;2023-04-09T00:36:10;96896.63;;;5.93;85.06
16094;BME280;8151;47.824;12.092;2023-04-09T00:38:38;96893.88;;;5.95;84.38
16094;BME280;8151;47.824;12.092;2023-04-09T00:41:07;96890.56;;;5.92;84.46
16094;BME280;8151;47.824;12.092;2023-04-09T00:43:35;96891.78;;;5.88;85.16
16094;BME280;8151;47.824;12.092;2023-04-09T00:46:04;96890.81;;;5.89;84.71
16094;BME280;8151;47.824;12.092;2023-04-09T00:48:35;96889.72;;;5.92;85.22
16094;BME280;8151;47.824;12.092;2023-04-09T00:51:03;96894.84;;;5.94;84.90
16094;BME280;8151;47.824;12.092;2023-04-09T00:53:33;96895.47;;;5.97;84.60
16094;BME280;8151;47.824;12.092;2023-04-09T00:56:03;96891.38;;;5.93;85.05
16094;BME280;8151;47.824;12.092;2023-04-09T00:58:33;96896.31;;;5.98;84.95
16094;BME280;8151;47.824;12.092;2023-04-09T01:01:02;96887.19;;;6.02;85.04
16094;BME280;8151;47.824;12.092;2023-04-09T01:03:34;96902.00;;;6.03;84.36
16094;BME280;8151;47.824;12.092;2023-04-09T01:06:06;96896.19;;;5.99;84.99
16094;BME280;8151;47.824;12.092;2023-04-09T01:08:42;96895.47;;;5.97;84.81
16094;BME280;8151;47.824;12.092;2023-04-09T01:11:21;96901.66;;;5.96;84.76
16094;BME280;8151;47.824;12.092;2023-04-09T01:13:57;96898.56;;;5.91;84.51
16094;BME280;8151;47.824;12.092;2023-04-09T01:16:29;96898.69;;;5.89;84.45
16094;BME280;8151;47.824;12.092;2023-04-09T01:19:09;96899.53;;;5.90;84.83
16094;BME280;8151;47.824;12.092;2023-04-09T01:21:39;96904.59;;;5.82;84.41
16094;BME280;8151;47.824;12.092;2023-04-09T01:24:18;96900.38;;;5.79;84.85
16094;BME280;8151;47.824;12.092;2023-04-09T01:26:56;96899.31;;;5.82;85.03
16094;BME280;8151;47.824;12.092;2023-04-09T01:29:31;96898.22;;;5.84;84.51
16094;BME280;8151;47.824;12.092;2023-04-09T01:32:01;96892.59;;;5.89;84.84
16094;BME280;8151;47.824;12.092;2023-04-09T01:34:30;96896.41;;;5.96;84.44
16094;BME280;8151;47.824;12.092;2023-04-09T01:37:01;96902.97;;;6.02;84.24
16094;BME280;8151;47.824;12.092;2023-04-09T01:39:30;96894.97;;;6.03;84.47
16094;BME280;8151;47.824;12.092;2023-04-09T01:42:00;96891.34;;;6.04;84.54
16094;BME280;8151;47.824;12.092;2023-04-09T01:44:31;96898.81;;;5.99;84.80
16094;BME280;8151;47.824;12.092;2023-04-09T01:47:00;96906.69;;;5.99;84.47
16094;BME280;8151;47.824;12.092;2023-04-09T01:49:29;96904.63;;;6.03;84.54
16094;BME280;8151;47.824;12.092;2023-04-09T01:51:59;96900.22;;;6.03;84.54
16094;BME280;8151;47.824;12.092;2023-04-09T01:54:28;96892.34;;;6.03;84.72
16094;BME280;8151;47.824;12.092;2023-04-09T01:56:56;96889.72;;;6.03;84.69
16094;BME280;8151;47.824;12.092;2023-04-09T01:59:25;96898.19;;;6.07;84.21
16094;BME280;8151;47.824;12.092;2023-04-09T02:01:59;96905.91;;;6.08;84.20
16094;BME280;8151;47.824;12.092;2023-04-09T02:04:33;96898.03;;;6.08;84.08
16094;BME280;8151;47.824;12.092;2023-04-09T02:07:05;96889.31;;;6.08;84.42
16094;BME280;8151;47.824;12.092;2023-04-09T02:09:41;96900.66;;;6.08;84.33
16094;BME280;8151;47.824;12.092;2023-04-09T02:12:12;96902.34;;;6.09;84.60
16094;BME280;8151;47.824;12.092;2023-04-09T02:14:41;96899.00;;;6.07;83.93
16094;BME280;8151;47.824;12.092;2023-04-09T02:17:15;96897.19;;;6.08;83.97
16094;BME280;8151;47.824;12.092;2023-04-09T02:19:45;96902.56;;;6.06;84.23
16094;BME280;8151;47.824;12.092;2023-04-09T02:22:23;96898.19;;;6.07;84.51
16094;BME280;8151;47.824;12.092;2023-04-09T02:25:02;96904.38;;;6.06;83.94
16094;BME280;8151;47.824;12.092;2023-04-09T02:27:40;96889.44;;;6.06;83.85
16094;BME280;8151;47.824;12.092;2023-04-09T02:30:09;96892.06;;;6.06;83.79
16094;BME280;8151;47.824;12.092;2023-04-09T02:32:49;96892.06;;;6.06;84.07
16094;BME280;8151;47.824;12.092;2023-04-09T02:35:28;96890.28;;;6.07;83.59
16094;BME280;8151;47.824;12.092;2023-04-09T02:38:07;96891.34;;;6.04;83.52
16094;BME280;8151;47.824;12.092;2023-04-09T02:40:49;96896.88;;;6.01;84.16
16094;BME280;8151;47.824;12.092;2023-04-09T02:43:27;96895.47;;;5.97;84.18
16094;BME280;8151;47.824;12.092;2023-04-09T02:46:06;96891.88;;;5.98;83.95
16094;BME280;8151;47.824;12.092;2023-04-09T02:48:46;96892.69;;;5.99;83.63
16094;BME280;8151;47.824;12.092;2023-04-09T02:51:14;96890.44;;;5.94;83.70
16094;BME280;8151;47.824;12.092;2023-04-09T02:53:43;96882.72;;;5.81;83.99
16094;BME280;8151;47.824;12.092;2023-04-09T02:56:11;96888.34;;;5.77;84.68
16094;BME280;8151;47.824;12.092;2023-04-09T02:58:40;96888.94;;;5.80;84.62
16094;BME280;8151;47.824;12.092;2023-04-09T03:01:08;96892.16;;;5.84;84.25
16094;BME280;8151;47.824;12.092;2023-04-09T03:03:37;96893.81;;;5.85;84.10
16094;BME280;8151;47.824;12.092;2023-04-09T03:06:09;96905.00;;;5.87;83.71
16094;BME280;8151;47.824;12.092;2023-04-09T03:08:38;96897.13;;;5.87;83.95
16094;BME280;8151;47.824;12.092;2023-04-09T03:11:06;96898.94;;;5.86;83.70
16094;BME280;8151;47.824;12.092;2023-04-09T03:13:34;96903.47;;;5.84;83.72
16094;BME280;8151;47.824;12.092;2023-04-09T03:16:03;96896.44;;;5.85;83.42
16094;BME280;8151;47.824;12.092;2023-04-09T03:18:32;96893.09;;;5.83;83.69
16094;BME280;8151;47.824;12.092;2023-04-09T03:21:04;96895.72;;;5.83;83.60
16094;BME280;8151;47.824;12.092;2023-04-09T03:23:35;96894.78;;;5.84;83.43
16094;BME280;8151;47.824;12.092;2023-04-09T03:26:04;96897.25;;;5.85;83.91
16094;BME280;8151;47.824;12.092;2023-04-09T03:28:33;96897.13;;;5.87;83.91
16094;BME280;8151;47.824;12.092;2023-04-09T03:31:02;96897.03;;;5.88;83.50
16094;BME280;8151;47.824;12.092;2023-04-09T03:33:30;96906.56;;;5.89;83.44
16094;BME280;8151;47.824;12.092;2023-04-09T03:35:59;96901.31;;;5.89;83.56
16094;BME280;8151;47.824;12.092;2023-04-09T03:38:27;96908.34;;;5.89;83.16
16094;BME280;8151;47.824;12.092;2023-04-09T03:40:57;96901.44;;;5.88;83.55
16094;BME280;8151;47.824;12.092;2023-04-09T03:43:25;96905.00;;;5.87;83.29
16094;BME280;8151;47.824;12.092;2023-04-09T03:45:53;96906.81;;;5.86;83.48
16094;BME280;8151;47.824;12.092;2023-04-09T03:48:22;96908.63;;;5.86;83.27
16094;BME280;8151;47.824;12.092;2023-04-09T03:50:50;96903.38;;;5.86;83.48
16094;BME280;8151;47.824;12.092;2023-04-09T03:53:19;96907.75;;;5.85;83.10
16094;BME280;8151;47.824;12.092;2023-04-09T03:55:48;96907.66;;;5.87;83.05
16094;BME280;8151;47.824;12.092;2023-04-09T03:58:18;96905.41;;;5.82;83.71
16094;BME280;8151;47.824;12.092;2023-04-09T04:00:46;96904.44;;;5.83;83.56
16094;BME280;8151;47.824;12.092;2023-04-09T04:03:14;96903.38;;;5.86;83.25
16094;BME280;8151;47.824;12.092;2023-04-09T04:05:43;96904.06;;;5.88;83.26
16094;BME280;8151;47.824;12.092;2023-04-09T04:08:11;96905.59;;;5.90;83.10
16094;BME280;8151;47.824;12.092;2023-04-09T04:10:40;96900.34;;;5.90;83.26
16094;BME280;8151;47.824;12.092;2023-04-09T04:13:08;96911.69;;;5.91;83.80
16094;BME280;8151;47.824;12.092;2023-04-09T04:15:40;96902.03;;;5.91;83.78
16094;BME280;8151;47.824;12.092;2023-04-09T04:18:09;96900.22;;;5.92;83.60
16094;BME280;8151;47.824;12.092;2023-04-09T04:20:38;96896.78;;;5.91;83.14
16094;BME280;8151;47.824;12.092;2023-04-09T04:23:07;96902.28;;;5.88;82.96
16094;BME280;8151;47.824;12.092;2023-04-09T04:25:35;96900.16;;;5.82;83.32
16094;BME280;8151;47.824;12.092;2023-04-09T04:28:04;96894.00;;;5.72;83.94
16094;BME280;8151;47.824;12.092;2023-04-09T04:30:32;96887.59;;;5.53;83.59
16094;BME280;8151;47.824;12.092;2023-04-09T04:33:03;96887.28;;;5.47;84.47
16094;BME280;8151;47.824;12.092;2023-04-09T04:35:32;96890.59;;;5.49;83.97
16094;BME280;8151;47.824;12.092;2023-04-09T04:38:00;96901.94;;;5.49;84.39
16094;BME280;8151;47.824;12.092;2023-04-09T04:40:29;96900.00;;;5.51;83.70
16094;BME280;8151;47.824;12.092;2023-04-09T04:42:59;96912.19;;;5.52;84.05
16094;BME280;8151;47.824;12.092;2023-04-09T04:45:27;96916.94;;;5.59;83.95
16094;BME280;8151;47.824;12.092;2023-04-09T04:47:55;96920.16;;;5.62;84.34
16094;BME280;8151;47.824;12.092;2023-04-09T04:50:25;96910.38;;;5.64;84.32
16094;BME280;8151;47.824;12.092;2023-04-09T04:52:54;96920.59;;;5.67;83.93
16094;BME280;8151;47.824;12.092;2023-04-09T04:55:22;96930.41;;;5.65;83.55
16094;BME280;8151;47.824;12.092;2023-04-09T04:57:50;96923.59;;;5.63;84.07
16094;BME280;8151;47.824;12.092;2023-04-09T05:00:19;96928.47;;;5.67;84.12
16094;BME280;8151;47.824;12.092;2023-04-09T05:02:47;96925.41;;;5.62;84.12
16094;BME280;8151;47.824;12.092;2023-04-09T05:05:16;96926.84;;;5.55;84.20
16094;BME280;8151;47.824;12.092;2023-04-09T05:07:46;96935.44;;;5.57;84.48
16094;BME280;8151;47.824;12.092;2023-04-09T05:10:14;96928.03;;;5.62;84.27
16094;BME280;8151;47.824;12.092;2023-04-09T05:12:43;96924.44;;;5.63;84.28
16094;BME280;8151;47.824;12.092;2023-04-09T05:15:11;96921.94;;;5.62;84.46
16094;BME280;8151;47.824;12.092;2023-04-09T05:17:41;96918.94;;;5.66;84.08
16094;BME280;8151;47.824;12.092;2023-04-09T05:20:10;96918.59;;;5.60;83.97
16094;BME280;8151;47.824;12.092;2023-04-09T05:22:39;96925.66;;;5.59;84.42
16094;BME280;8151;47.824;12.092;2023-04-09T05:25:09;96925.88;;;5.56;84.01
16094;BME280;8151;47.824;12.092;2023-04-09T05:27:37;96927.44;;;5.59;84.24
16094;BME280;8151;47.824;12.092;2023-04-09T05:30:07;96924.56;;;5.50;84.30
16094;BME280;8151;47.824;12.092;2023-04-09T05:32:36;96927.59;;;5.46;84.33
16094;BME280;8151;47.824;12.092;2023-04-09T05:35:05;96930.09;;;5.47;84.79
16094;BME280;8151;47.824;12.092;2023-04-09T05:37:34;96931.50;;;5.51;84.36
16094;BME280;8151;47.824;12.092;2023-04-09T05:40:04;96931.13;;;5.56;84.16
16094;BME280;8151;47.824;12.092;2023-04-09T05:42:34;96933.75;;;5.56;84.67
16094;BME280;8151;47.824;12.092;2023-04-09T05:45:03;96937.34;;;5.55;84.76
16094;BME280;8151;47.824;12.092;2023-04-09T05:47:32;96947.25;;;5.51;84.74
16094;BME280;8151;47.824;12.092;2023-04-09T05:50:00;96953.09;;;5.55;84.25
16094;BME280;8151;47.824;12.092;2023-04-09T05:52:29;96949.97;;;5.61;84.38
16094;BME280;8151;47.824;12.092;2023-04-09T05:54:58;96944.63;;;5.63;83.93
16094;BME280;8151;47.824;12.092;2023-04-09T05:57:26;96953.78;;;5.68;84.52
16094;BME280;8151;47.824;12.092;2023-04-09T05:59:57;96959.38;;;5.75;84.32
16094;BME280;8151;47.824;12.092;2023-04-09T06:02:26;96952.78;;;5.81;83.83
16094;BME280;8151;47.824;12.092;2023-04-09T06:04:55;96960.19;;;5.76;84.05
16094;BME280;8151;47.824;12.092;2023-04-09T06:07:23;96949.13;;;5.72;84.65
16094;BME280;8151;47.824;12.092;2023-04-09T06:09:52;96954.38;;;5.72;84.05
16094;BME280;8151;47.824;12.092;2023-04-09T06:12:20;96957.72;;;5.74;84.25
16094;BME280;8151;47.824;12.092;2023-04-09T06:14:49;96952.19;;;5.77;84.55
16094;BME280;8151;47.824;12.092;2023-04-09T06:17:19;96960.78;;;5.79;84.38
16094;BME280;8151;47.824;12.092;2023-04-09T06:19:47;96963.09;;;5.72;84.21
16094;BME280;8151;47.824;12.092;2023-04-09T06:22:15;96962.00;;;5.64;84.63
16094;BME280;8151;47.824;12.092;2023-04-09T06:24:44;96964.91;;;5.61;84.86
16094;BME280;8151;47.824;12.092;2023-04-09T06:27:12;96969.78;;;5.65;84.43
16094;BME280;8151;47.824;12.092;2023-04-09T06:29:40;96971.78;;;5.73;84.74
16094;BME280;8151;47.824;12.092;2023-04-09T06:32:09;96979.28;;;5.78;84.19
16094;BME280;8151;47.824;12.092;2023-04-09T06:34:39;96967.72;;;5.80;84.23
16094;BME280;8151;47.824;12.092;2023-04-09T06:37:07;96973.41;;;5.85;84.21
16094;BME280;8151;47.824;12.092;2023-04-09T06:39:37;96975.09;;;5.86;83.98
16094;BME280;8151;47.824;12.092;2023-04-09T06:42:10;96979.66;;;5.73;84.73
16094;BME280;8151;47.824;12.092;2023-04-09T06:44:39;96981.72;;;5.58;84.36
16094;BME280;8151;47.824;12.092;2023-04-09T06:47:07;96977.81;;;5.52;84.76
16094;BME280;8151;47.824;12.092;2023-04-09T06:49:35;96983.28;;;5.61;84.63
16094;BME280;8151;47.824;12.092;2023-04-09T06:52:05;96985.19;;;5.70;84.56
16094;BME280;8151;47.824;12.092;2023-04-09T06:54:37;96988.00;;;5.78;84.58
16094;BME280;8151;47.824;12.092;2023-04-09T06:57:06;96987.53;;;5.84;84.25
16094;BME280;8151;47.824;12.092;2023-04-09T06:59:34;96989.66;;;5.90;84.84
16094;BME280;8151;47.824;12.092;2023-04-09T07:02:04;96994.44;;;5.97;84.69
16094;BME280;8151;47.824;12.092;2023-04-09T07:04:32;96998.47;;;6.01;84.09
16094;BME280;8151;47.824;12.092;2023-04-09T07:07:01;97001.69;;;6.04;83.66
16094;BME280;8151;47.824;12.092;2023-04-09T07:09:31;97000.47;;;6.08;84.20
16094;BME280;8151;47.824;12.092;2023-04-09T07:12:00;96994.88;;;6.13;83.72
16094;BME280;8151;47.824;12.092;2023-04-09T07:14:28;96995.47;;;6.17;84.03
16094;BME280;8151;47.824;12.092;2023-04-09T07:16:57;96986.13;;;6.13;83.57
16094;BME280;8151;47.824;12.092;2023-04-09T07:19:25;96987.09;;;6.11;83.49
16094;BME280;8151;47.824;12.092;2023-04-09T07:21:54;96994.16;;;6.11;83.90
16094;BME280;8151;47.824;12.092;2023-04-09T07:24:22;96995.94;;;6.10;83.30
16094;BME280;8151;47.824;12.092;2023-04-09T07:26:52;96991.19;;;6.04;83.38
16094;BME280;8151;47.824;12.092;2023-04-09T07:29:20;96990.47;;;6.02;84.01
16094;BME280;8151;47.824;12.092;2023-04-09T07:31:49;96994.91;;;6.02;83.54
16094;BME280;8151;47.824;12.092;2023-04-09T07:34:17;96987.84;;;6.02;83.50
16094;BME280;8151;47.824;12.092;2023-04-09T07:36:46;96994.41;;;6.08;83.87
16094;BME280;8151;47.824;12.092;2023-04-09T07:39:14;97003.97;;;6.09;83.74
16094;BME280;8151;47.824;12.092;2023-04-09T07:41:43;97005.03;;;6.06;83.98
16094;BME280;8151;47.824;12.092;2023-04-09T07:44:13;96996.66;;;6.13;83.59
16094;BME280;8151;47.824;12.092;2023-04-09T07:46:42;97000.56;;;6.18;83.96
16094;BME280;8151;47.824;12.092;2023-04-09T07:49:11;96996.59;;;6.24;83.86
16094;BME280;8151;47.824;12.092;2023-04-09T07:51:39;96991.94;;;6.27;83.72
16094;BME280;8151;47.824;12.092;2023-04-09T07:54:08;96993.47;;;6.30;83.36
16094;BME280;8151;47.824;12.092;2023-04-09T07:56:38;96990.00;;;6.29;83.20
16094;BME280;8151;47.824;12.092;2023-04-09T07:59:06;96993.13;;;6.35;83.38
16094;BME280;8151;47.824;12.092;2023-04-09T08:01:37;97004.53;;;6.45;83.82
16094;BME280;8151;47.824;12.092;2023-04-09T08:04:05;96999.34;;;6.55;83.33
16094;BME280;8151;47.824;12.092;2023-04-09T08:06:34;96998.97;;;6.59;83.47
16094;BME280;8151;47.824;12.092;2023-04-09T08:09:04;96996.41;;;6.69;83.36
16094;BME280;8151;47.824;12.092;2023-04-09T08:11:32;96994.91;;;6.76;83.26
16094;BME280;8151;47.824;12.092;2023-04-09T08:14:01;96994.41;;;6.82;83.06
16094;BME280;8151;47.824;12.092;2023-04-09T08:16:30;96991.13;;;6.90;82.89
16094;BME280;8151;47.824;12.092;2023-04-09T08:19:00;96997.41;;;6.99;83.08
16094;BME280;8151;47.824;12.092;2023-04-09T08:21:28;97000.50;;;7.04;82.73
16094;BME280;8151;47.824;12.092;2023-04-09T08:23:58;96995.47;;;7.01;83.04
16094;BME280;8151;47.824;12.092;2023-04-09T08:26:30;96998.56;;;7.06;83.37
16094;BME280;8151;47.824;12.092;2023-04-09T08:29:00;97001.03;;;7.07;83.21
16094;BME280;8151;47.824;12.092;2023-04-09T08:31:28;96997.06;;;7.13;83.37
16094;BME280;8151;47.824;12.092;2023-04-09T08:33:57;96992.00;;;7.21;83.09
16094;BME280;8151;47.824;12.092;2023-04-09T08:36:27;96990.69;;;7.37;83.02
16094;BME280;8151;47.824;12.092;2023-04-09T08:38:55;96998.44;;;7.48;82.75
16094;BME280;8151;47.824;12.092;2023-04-09T08:41:25;96994.66;;;7.62;82.66
16094;BME280;8151;47.824;12.092;2023-04-09T08:43:55;96994.38;;;7.75;82.24
16094;BME280;8151;47.824;12.092;2023-04-09T08:46:26;97004.00;;;7.85;82.08
16094;BME280;8151;47.824;12.092;2023-04-09T08:48:54;97011.06;;;7.95;82.10
16094;BME280;8151;47.824;12.092;2023-04-09T08:51:23;96998.88;;;8.03;82.10
16094;BME280;8151;47.824;12.092;2023-04-09T08:53:55;97000.28;;;8.07;81.86
16094;BME280;8151;47.824;12.092;2023-04-09T08:56:24;96997.22;;;8.12;82.18
16094;BME280;8151;47.824;12.092;2023-04-09T08:58:54;97008.06;;;8.19;81.92
16094;BME280;8151;47.824;12.092;2023-04-09T09:01:23;97002.66;;;8.30;81.83
16094;BME280;8151;47.824;12.092;2023-04-09T09:03:55;97005.88;;;8.43;81.67
16094;BME280;8151;47.824;12.092;2023-04-09T09:06:24;97003.63;;;8.58;81.21
16094;BME280;8151;47.824;12.092;2023-04-09T09:09:01;97002.09;;;8.75;81.22
16094;BME280;8151;47.824;12.092;2023-04-09T09:11:30;97008.06;;;8.87;81.03
16094;BME280;8151;47.824;12.092;2023-04-09T09:14:03;97006.94;;;8.90;81.34
16094;BME280;8151;47.824;12.092;2023-04-09T09:16:32;97009.72;;;8.88;81.47
16094;BME280;8151;47.824;12.092;2023-04-09T09:19:02;97002.53;;;8.80;81.77
16094;BME280;8151;47.824;12.092;2023-04-09T09:21:30;97010.03;;;8.75;81.83
16094;BME280;8151;47.824;12.092;2023-04-09T09:24:01;97005.88;;;8.73;82.30
16094;BME280;8151;47.824;12.092;2023-04-09T09:26:30;97005.16;;;8.80;81.69
16094;BME280;8151;47.824;12.092;2023-04-09T09:29:02;97004.47;;;8.88;81.65
16094;BME280;8151;47.824;12.092;2023-04-09T09:31:44;97000.13;;;8.97;80.66
16094;BME280;8151;47.824;12.092;2023-04-09T09:34:13;97006.38;;;9.05;80.96
16094;BME280;8151;47.824;12.092;2023-04-09T09:36:42;97005.91;;;9.20;80.81
16094;BME280;8151;47.824;12.092;2023-04-09T09:39:14;97001.56;;;9.29;80.30
16094;BME280;8151;47.824;12.092;2023-04-09T09:41:44;97004.31;;;9.37;80.57
16094;BME280;8151;47.824;12.092;2023-04-09T09:44:30;97001.69;;;9.37;80.05
16094;BME280;8151;47.824;12.092;2023-04-09T09:46:59;96991.50;;;9.42;80.58
16094;BME280;8151;47.824;12.092;2023-04-09T09:49:30;96996.03;;;9.50;80.10
16094;BME280;8151;47.824;12.092;2023-04-09T09:51:59;96999.09;;;9.55;79.87
16094;BME280;8151;47.824;12.092;2023-04-09T09:54:36;96992.53;;;9.59;79.91
16094;BME280;8151;47.824;12.092;2023-04-09T09:57:09;96995.25;;;9.67;79.54
16094;BME280;8151;47.824;12.092;2023-04-09T09:59:43;96994.69;;;9.73;79.35
16094;BME280;8151;47.824;12.092;2023-04-09T10:02:18;96994.25;;;9.78;79.21
16094;BME280;8151;47.824;12.092;2023-04-09T10:04:49;96994.88;;;9.90;79.31
16094;BME280;8151;47.824;12.092;2023-04-09T10:07:19;97001.19;;;10.07;78.77
16094;BME280;8151;47.824;12.092;2023-04-09T10:09:51;96992.72;;;10.21;77.80
16094;BME280;8151;47.824;12.092;2023-04-09T10:12:21;96993.50;;;10.31;77.85
16094;BME280;8151;47.824;12.092;2023-04-09T10:14:51;96988.44;;;10.38;77.14
16094;BME280;8151;47.824;12.092;2023-04-09T10:17:19;96988.97;;;10.41;77.09
16094;BME280;8151;47.824;12.092;2023-04-09T10:19:54;96985.59;;;10.49;76.49
16094;BME280;8151;47.824;12.092;2023-04-09T10:22:26;96988.00;;;10.60;76.67
16094;BME280;8151;47.824;12.092;2023-04-09T10:24:58;96994.38;;;10.76;75.94
16094;BME280;8151;47.824;12.092;2023-04-09T10:27:26;96991.13;;;10.82;75.13
16094;BME280;8151;47.824;12.092;2023-04-09T10:29:55;96980.91;;;10.87;75.06
16094;BME280;8151;47.824;12.092;2023-04-09T10:32:23;96981.75;;;10.88;75.37
16094;BME280;8151;47.824;12.092;2023-04-09T10:34:56;96983.91;;;10.92;75.07
16094;BME280;8151;47.824;12.092;2023-04-09T10:37:26;96981.16;;;11.02;74.60
16094;BME280;8151;47.824;12.092;2023-04-09T10:39:55;96977.13;;;11.16;74.52
16094;BME280;8151;47.824;12.092;2023-04-09T10:42:29;96974.72;;;11.31;74.10
16094;BME280;8151;47.824;12.092;2023-04-09T10:45:07;96972.13;;;11.47;73.24
16094;BME280;8151;47.824;12.092;2023-04-09T10:47:36;96971.50;;;11.53;73.49
16094;BME280;8151;47.824;12.092;2023-04-09T10:50:17;96972.81;;;11.49;72.70
16094;BME280;8151;47.824;12.092;2023-04-09T10:52:47;96976.63;;;11.47;73.43
16094;BME280;8151;47.824;12.092;2023-04-09T10:55:40;96972.47;;;11.44;72.44
16094;BME280;8151;47.824;12.092;2023-04-09T10:58:11;96977.38;;;11.31;73.23
16094;BME280;8151;47.824;12.092;2023-04-09T11:00:41;96964.25;;;11.21;73.45
16094;BME280;8151;47.824;12.092;2023-04-09T11:03:22;96966.41;;;11.26;73.01
16094;BME280;8151;47.824;12.092;2023-04-09T11:05:53;96968.94;;;11.35;72.89
16094;BME280;8151;47.824;12.092;2023-04-09T11:08:22;96959.38;;;11.42;72.54
16094;BME280;8151;47.824;12.092;2023-04-09T11:10:51;96964.69;;;11.51;72.32
16094;BME280;8151;47.824;12.092;2023-04-09T11:13:26;96959.41;;;11.51;71.99
16094;BME280;8151;47.824;12.092;2023-04-09T11:15:56;96963.72;;;11.52;71.47
16094;BME280;8151;47.824;12.092;2023-04-09T11:18:26;96957.41;;;11.53;71.45
16094;BME280;8151;47.824;12.092;2023-04-09T11:20:55;96957.41;;;11.53;71.06
16094;BME280;8151;47.824;12.092;2023-04-09T11:23:23;96956.25;;;11.55;70.93
16094;BME280;8151;47.824;12.092;2023-04-09T11:25:53;96963.59;;;11.61;70.14
16094;BME280;8151;47.824;12.092;2023-04-09T11:28:22;96954.63;;;11.62;69.91
16094;BME280;8151;47.824;12.092;2023-04-09T11:30:53;96958.63;;;11.67;69.75
16094;BME280;8151;47.824;12.092;2023-04-09T11:33:21;96949.53;;;11.69;69.45
16094;BME280;8151;47.824;12.092;2023-04-09T11:35:50;96952.00;;;11.71;68.97
16094;BME280;8151;47.824;12.092;2023-04-09T11:38:18;96947.38;;;11.73;68.91
16094;BME280;8151;47.824;12.092;2023-04-09T11:40:47;96948.91;;;11.75;68.71
16094;BME280;8151;47.824;12.092;2023-04-09T11:43:16;96951.22;;;11.78;68.59
16094;BME280;8151;47.824;12.092;2023-04-09T11:45:47;96955.44;;;11.89;68.09
16094;BME280;8151;47.824;12.092;2023-04-09T11:48:17;96951.81;;;11.98;67.92
16094;BME280;8151;47.824;12.092;2023-04-09T11:50:48;96953.50;;;12.16;67.42
16094;BME280;8151;47.824;12.092;2023-04-09T11:53:17;96952.84;;;12.30;66.80
16094;BME280;8151;47.824;12.092;2023-04-09T11:55:48;96949.22;;;12.39;66.46
16094;BME280;8151;47.824;12.092;2023-04-09T11:58:17;96955.53;;;12.47;66.25
16094;BME280;8151;47.824;12.092;2023-04-09T12:00:51;96959.16;;;12.54;65.66
16094;BME280;8151;47.824;12.092;2023-04-09T12:03:28;96961.31;;;12.67;64.92
16094;BME280;8151;47.824;12.092;2023-04-09T12:06:00;96956.50;;;12.70;65.38
16094;BME280;8151;47.824;12.092;2023-04-09T12:08:29;96959.16;;;12.70;65.42
16094;BME280;8151;47.824;12.092;2023-04-09T12:11:07;96953.34;;;12.67;65.28
16094;BME280;8151;47.824;12.092;2023-04-09T12:13:36;96959.81;;;12.56;65.60
16094;BME280;8151;47.824;12.092;2023-04-09T12:16:09;96960.31;;;12.43;66.03
16094;BME280;8151;47.824;12.092;2023-04-09T12:18:39;96965.78;;;12.33;66.12
16094;BME280;8151;47.824;12.092;2023-04-09T12:21:09;96965.28;;;12.21;65.99
16094;BME280;8151;47.824;12.092;2023-04-09T12:23:38;96970.06;;;12.10;66.36
16094;BME280;8151;47.824;12.092;2023-04-09T12:26:10;96967.88;;;11.97;66.53
16094;BME280;8151;47.824;12.092;2023-04-09T12:28:38;96968.97;;;11.86;66.72
16094;BME280;8151;47.824;12.092;2023-04-09T12:31:08;96970.94;;;11.76;66.38
16094;BME280;8151;47.824;12.092;2023-04-09T12:33:39;96968.25;;;11.68;66.73
16094;BME280;8151;47.824;12.092;2023-04-09T12:36:09;96972.38;;;11.62;66.70
16094;BME280;8151;47.824;12.092;2023-04-09T12:38:38;96972.50;;;11.52;66.53
16094;BME280;8151;47.824;12.092;2023-04-09T12:41:07;96974.59;;;11.40;67.25
16094;BME280;8151;47.824;12.092;2023-04-09T12:43:35;96976.53;;;11.30;67.35
16094;BME280;8151;47.824;12.092;2023-04-09T12:46:04;96976.81;;;11.19;67.69
16094;BME280;8151;47.824;12.092;2023-04-09T12:48:33;96984.88;;;11.09;67.49
16094;BME280;8151;47.824;12.092;2023-04-09T12:51:06;96984.13;;;10.99;67.98
16094;BME280;8151;47.824;12.092;2023-04-09T12:53:35;96990.84;;;10.93;68.19
16094;BME280;8151;47.824;12.092;2023-04-09T12:56:04;96982.72;;;10.87;68.45
16094;BME280;8151;47.824;12.092;2023-04-09T12:58:32;96988.00;;;10.87;68.10
16094;BME280;8151;47.824;12.092;2023-04-09T13:01:04;96982.56;;;10.88;67.88
16094;BME280;8151;47.824;12.092;2023-04-09T13:03:33;96986.88;;;10.89;67.73
16094;BME280;8151;47.824;12.092;2023-04-09T13:06:03;96973.47;;;10.91;67.64
16094;BME280;8151;47.824;12.092;2023-04-09T13:08:32;96979.44;;;10.93;67.54
16094;BME280;8151;47.824;12.092;2023-04-09T13:11:01;96978.47;;;10.94;67.43
16094;BME280;8151;47.824;12.092;2023-04-09T13:13:30;96981.78;;;10.96;67.27
16094;BME280;8151;47.824;12.092;2023-04-09T13:15:59;96980.66;;;10.98;67.12
16094;BME280;8151;47.824;12.092;2023-04-09T13:18:28;96977.84;;;11.00;67.45
16094;BME280;8151;47.824;12.092;2023-04-09T13:20:56;96975.88;;;11.02;67.46
16094;BME280;8151;47.824;12.092;2023-04-09T13:23:25;96979.50;;;11.01;67.58